Time;durP1;ratioP1;P1;durP2;ratioP2;P2;SDS_P1;SDS_P2;PMS_P1;PMS_P2;Temp;Humidity;BMP_temperature;BMP_pressure;BME280_temperature;BME280_humidity;BME280_pressure;Samples;Min_cycle;Max_cycle;Signal;HPM_P1;HPM_P2
2021/05/20 00:00:20;;;;;;;1.27;0.90;;;;;;;11.24;96.09;98269.28;1766722;80;21495;-74
2021/05/20 00:02:49;;;;;;;2.45;1.27;;;;;;;11.24;95.93;98266.52;1765892;80;21027;-73
2021/05/20 00:05:17;;;;;;;1.37;0.85;;;;;;;11.23;96.03;98268.47;1773510;80;21011;-75
2021/05/20 00:07:45;;;;;;;1.57;0.65;;;;;;;11.23;96.00;98264.33;1773708;80;20944;-75
2021/05/20 00:10:13;;;;;;;1.10;0.80;;;;;;;11.23;95.91;98271.80;1738798;80;21079;-73
2021/05/20 00:12:39;;;;;;;2.92;0.60;;;;;;;11.17;95.78;98262.41;1773709;80;21566;-73
2021/05/20 00:15:06;;;;;;;0.95;0.70;;;;;;;11.15;95.98;98262.55;1773652;80;21018;-74
2021/05/20 00:17:33;;;;;;;3.22;0.60;;;;;;;11.14;95.97;98265.88;1769943;80;21455;-73
2021/05/20 00:20:00;;;;;;;0.88;0.70;;;;;;;11.11;95.96;98267.16;1772837;80;21075;-73
2021/05/20 00:22:29;;;;;;;1.47;0.90;;;;;;;11.10;96.05;98265.57;1771671;80;21076;-73
2021/05/20 00:24:56;;;;;;;0.82;0.80;;;;;;;11.11;96.27;98264.41;1773313;80;21003;-74
2021/05/20 00:27:23;;;;;;;1.55;0.90;;;;;;;11.11;96.28;98267.16;1770306;80;20963;-74
2021/05/20 00:29:50;;;;;;;1.47;0.80;;;;;;;11.11;96.30;98268.53;1777297;80;20954;-76
2021/05/20 00:32:17;;;;;;;1.37;1.05;;;;;;;11.09;96.24;98274.41;1769968;80;21558;-72
2021/05/20 00:34:45;;;;;;;1.65;1.00;;;;;;;11.09;96.30;98270.27;1769708;80;21582;-72
2021/05/20 00:37:11;;;;;;;2.60;1.12;;;;;;;11.11;96.41;98271.30;1772374;80;20956;-72
2021/05/20 00:39:47;;;;;;;1.40;1.00;;;;;;;11.11;96.26;98269.34;1761383;80;21081;-75
2021/05/20 00:42:14;;;;;;;2.58;1.00;;;;;;;11.11;96.14;98281.75;1773728;80;21029;-73
2021/05/20 00:45:01;;;;;;;3.33;1.02;;;;;;;11.10;96.02;98277.97;1773166;80;21132;-72
2021/05/20 00:47:34;;;;;;;1.57;1.00;;;;;;;11.05;95.93;98273.53;1739219;80;21617;-73
2021/05/20 00:50:00;;;;;;;1.17;0.95;;;;;;;11.02;95.86;98274.24;1770711;80;21062;-75
2021/05/20 00:52:26;;;;;;;3.80;0.98;;;;;;;10.97;95.95;98277.25;1775102;80;21096;-72
2021/05/20 00:54:56;;;;;;;1.00;0.90;;;;;;;10.93;95.84;98273.02;1781374;80;21536;-76
2021/05/20 00:57:22;;;;;;;2.15;1.12;;;;;;;10.89;95.95;98276.25;1777386;80;22653;-72
2021/05/20 00:59:49;;;;;;;1.55;1.10;;;;;;;10.88;96.09;98278.22;1771894;80;21720;-72
2021/05/20 01:02:16;;;;;;;2.22;0.88;;;;;;;10.86;96.06;98276.39;1765960;80;21585;-74
2021/05/20 01:04:42;;;;;;;3.90;1.65;;;;;;;10.86;96.14;98279.71;1738652;80;21049;-74
2021/05/20 01:07:08;;;;;;;2.17;0.93;;;;;;;10.86;96.22;98285.22;1770520;80;21546;-73
2021/05/20 01:09:36;;;;;;;5.30;1.90;;;;;;;10.86;96.10;98281.09;1767009;80;21060;-75
2021/05/20 01:12:05;;;;;;;2.00;1.12;;;;;;;10.85;96.14;98280.88;1769884;80;21030;-72
2021/05/20 01:14:43;;;;;;;2.77;1.35;;;;;;;10.85;96.24;98276.74;1767917;80;21059;-73
2021/05/20 01:17:15;;;;;;;1.55;1.30;;;;;;;10.88;96.41;98273.28;1772200;80;20983;-74
2021/05/20 01:19:47;;;;;;;4.45;1.20;;;;;;;10.87;96.14;98269.71;1769196;80;21024;-74
2021/05/20 01:22:18;;;;;;;2.00;1.47;;;;;;;10.88;96.13;98272.70;1767663;80;21097;-75
2021/05/20 01:24:53;;;;;;;8.05;1.52;;;;;;;10.88;96.15;98270.52;1768712;80;21497;-74
2021/05/20 01:27:23;;;;;;;1.82;1.20;;;;;;;10.88;96.25;98266.39;1757280;80;21026;-71
2021/05/20 01:29:50;;;;;;;2.80;1.62;;;;;;;10.93;96.32;98273.02;1768721;80;21015;-71
2021/05/20 01:32:17;;;;;;;3.15;1.47;;;;;;;10.93;96.23;98268.31;1772784;80;21047;-77
2021/05/20 01:34:56;;;;;;;13.20;1.62;;;;;;;10.93;96.15;98265.56;1769384;80;20999;-74
2021/05/20 01:37:30;;;;;;;2.55;1.37;;;;;;;10.93;96.07;98264.19;1767487;80;21148;-73
2021/05/20 01:40:00;;;;;;;3.80;1.30;;;;;;;10.92;96.00;98269.45;1769881;80;20951;-72
2021/05/20 01:42:28;;;;;;;2.02;1.40;;;;;;;10.93;96.10;98259.24;1767593;80;21567;-73
2021/05/20 01:44:55;;;;;;;7.05;1.45;;;;;;;10.93;95.99;98266.94;1770987;80;21086;-72
2021/05/20 01:47:21;;;;;;;2.02;1.20;;;;;;;10.90;95.69;98262.71;1772999;80;21586;-73
2021/05/20 02:00:50;;;;;;;5.03;1.87;;;;;;;10.75;95.88;98262.91;1635453;86;21097;-76
2021/05/20 02:03:19;;;;;;;5.75;1.85;;;;;;;10.75;95.93;98263.69;1638717;86;21071;-75
2021/05/20 02:05:58;;;;;;;2.80;1.40;;;;;;;10.75;95.91;98261.53;1664366;84;21678;-74
2021/05/20 02:08:27;;;;;;;3.27;1.70;;;;;;;10.73;95.77;98256.94;1663784;84;21615;-75
2021/05/20 02:10:57;;;;;;;6.42;1.77;;;;;;;10.71;95.87;98262.20;1671657;84;21097;-76
2021/05/20 02:13:23;;;;;;;2.45;1.50;;;;;;;10.70;95.84;98251.55;1667536;84;21051;-74
2021/05/20 02:15:50;;;;;;;1.40;1.30;;;;;;;10.68;95.72;98264.89;1667541;84;22408;-78
2021/05/20 02:18:19;;;;;;;5.65;2.17;;;;;;;10.67;95.74;98259.95;1666780;84;21084;-75
2021/05/20 02:20:46;;;;;;;3.50;1.62;;;;;;;10.68;95.72;98266.27;1671492;84;21108;-77
2021/05/20 02:23:13;;;;;;;6.78;1.95;;;;;;;10.68;95.65;98262.13;1677042;84;21620;-74
2021/05/20 02:25:41;;;;;;;2.37;1.60;;;;;;;10.65;95.49;98260.87;1672490;84;21067;-75
2021/05/20 02:28:07;;;;;;;11.08;1.72;;;;;;;10.61;95.56;98261.33;1671569;84;21120;-74
2021/05/20 02:30:34;;;;;;;4.33;1.47;;;;;;;10.63;95.68;98260.41;1670876;84;21480;-77
2021/05/20 02:33:01;;;;;;;5.60;1.72;;;;;;;10.63;95.53;98260.41;1672135;82;21688;-74
2021/05/20 02:35:27;;;;;;;7.03;1.80;;;;;;;10.64;95.53;98263.41;1719146;83;21792;-73
2021/05/20 02:37:54;;;;;;;4.20;1.65;;;;;;;10.66;95.52;98263.84;1718112;83;21058;-74
2021/05/20 02:40:20;;;;;;;2.33;1.60;;;;;;;10.64;95.23;98263.41;1721567;83;21083;-74
2021/05/20 02:42:48;;;;;;;5.15;1.40;;;;;;;10.64;95.23;98258.47;1719289;83;21763;-74
2021/05/20 02:45:21;;;;;;;5.92;1.60;;;;;;;10.65;95.17;98259.48;1718247;83;21075;-74
2021/05/20 02:47:49;;;;;;;5.60;1.22;;;;;;;10.64;95.02;98260.66;1698440;83;21080;-74
2021/05/20 02:50:20;;;;;;;1.70;1.55;;;;;;;10.61;94.67;98255.05;1718309;83;21604;-78
2021/05/20 03:00:34;;;;;;;2.37;1.50;;;;;;;10.55;94.67;98256.67;1734577;81;21046;-77
2021/05/20 03:03:01;;;;;;;7.92;1.80;;;;;;;10.51;94.65;98253.59;1749190;81;21062;-74
2021/05/20 03:05:27;;;;;;;5.70;1.77;;;;;;;10.51;94.73;98261.27;1749789;81;21029;-75
2021/05/20 03:07:54;;;;;;;3.67;1.70;;;;;;;10.49;94.77;98260.84;1725505;81;21021;-75
2021/05/20 03:10:22;;;;;;;3.98;1.72;;;;;;;10.47;94.55;98262.53;1749621;82;20982;-73
2021/05/20 03:12:49;;;;;;;3.15;1.50;;;;;;;10.48;94.50;98263.34;1749929;82;20946;-77
2021/05/20 03:15:15;;;;;;;6.03;1.32;;;;;;;10.49;94.45;98264.16;1749816;81;21585;-76
2021/05/20 03:17:43;;;;;;;1.60;1.35;;;;;;;10.51;94.43;98263.23;1749728;81;21014;-75
2021/05/20 03:20:11;;;;;;;2.77;1.05;;;;;;;10.49;94.20;98268.28;1749884;82;21569;-76
2021/05/20 03:22:40;;;;;;;4.12;1.37;;;;;;;10.46;94.14;98269.17;1749513;81;21624;-78
2021/05/20 03:25:08;;;;;;;3.75;1.47;;;;;;;10.49;94.23;98267.72;1749705;81;21077;-76
2021/05/20 03:27:37;;;;;;;2.70;1.62;;;;;;;10.50;94.07;98267.12;1749790;81;21022;-76
2021/05/20 03:30:06;;;;;;;3.15;1.60;;;;;;;10.51;94.10;98270.13;1729462;82;21066;-77
2021/05/20 03:32:33;;;;;;;5.03;1.22;;;;;;;10.51;93.95;98265.99;1745968;82;21010;-75
2021/05/20 03:34:59;;;;;;;2.70;1.50;;;;;;;10.50;93.78;98260.23;1749720;82;21917;-77
2021/05/20 03:37:27;;;;;;;2.30;1.27;;;;;;;10.52;93.63;98264.27;1749452;81;21019;-77
2021/05/20 03:39:55;;;;;;;3.27;1.95;;;;;;;10.52;93.75;98265.64;1749986;82;20966;-75
2021/05/20 03:42:24;;;;;;;2.47;1.30;;;;;;;10.52;93.26;98255.19;1749820;81;21030;-79
2021/05/20 03:44:51;;;;;;;6.90;1.30;;;;;;;10.53;93.49;98265.05;1743798;82;21578;-75
2021/05/20 03:47:17;;;;;;;1.62;1.52;;;;;;;10.58;93.60;98259.28;1746831;82;21109;-74
2021/05/20 03:49:45;;;;;;;5.80;1.87;;;;;;;10.61;93.34;98259.95;1749667;81;21044;-76
2021/05/20 03:52:17;;;;;;;4.33;1.40;;;;;;;10.65;93.43;98261.44;1745255;82;21070;-73
2021/05/20 03:54:44;;;;;;;4.40;1.82;;;;;;;10.67;92.75;98255.81;1750040;81;21058;-74
2021/05/20 03:57:11;;;;;;;3.72;1.60;;;;;;;10.67;92.51;98266.02;1749941;82;21567;-72
2021/05/20 03:59:37;;;;;;;3.00;1.50;;;;;;;10.66;92.54;98270.72;1749693;81;21132;-76
2021/05/20 04:02:03;;;;;;;4.90;1.32;;;;;;;10.67;92.62;98270.97;1753544;81;21539;-75
2021/05/20 04:04:30;;;;;;;5.30;1.40;;;;;;;10.71;92.76;98269.09;1757112;81;21035;-75
2021/05/20 04:06:57;;;;;;;1.55;1.10;;;;;;;10.77;92.84;98268.84;1754394;81;21080;-74
2021/05/20 04:09:25;;;;;;;6.80;1.45;;;;;;;10.86;92.92;98272.25;1756698;81;21582;-76
2021/05/20 04:11:52;;;;;;;4.72;1.52;;;;;;;10.93;92.46;98274.40;1760449;81;21537;-77
2021/05/20 04:14:20;;;;;;;3.77;1.40;;;;;;;10.97;92.56;98278.63;1753881;81;21010;-79
2021/05/20 04:16:46;;;;;;;2.98;1.72;;;;;;;11.02;92.42;98279.16;1755391;81;21562;-78
2021/05/20 04:19:15;;;;;;;2.17;1.35;;;;;;;11.05;92.21;98270.77;1758377;81;21027;-79
2021/05/20 04:21:44;;;;;;;2.75;1.30;;;;;;;11.08;91.89;98274.20;1755312;81;21023;-75
2021/05/20 04:24:10;;;;;;;5.08;1.45;;;;;;;11.10;91.58;98277.41;1755839;81;21546;-74
2021/05/20 04:26:37;;;;;;;1.95;1.30;;;;;;;11.07;91.20;98284.41;1754152;81;21020;-76
2021/05/20 04:29:05;;;;;;;2.83;1.37;;;;;;;11.07;91.25;98280.88;1759698;81;21007;-74
2021/05/20 04:31:34;;;;;;;3.75;1.02;;;;;;;11.07;91.15;98287.77;1756020;81;21101;-74
2021/05/20 04:34:02;;;;;;;2.37;1.37;;;;;;;11.08;90.90;98283.84;1758580;81;21016;-73
2021/05/20 04:36:32;;;;;;;5.55;2.37;;;;;;;11.02;90.80;98287.42;1726867;80;21027;-76
2021/05/20 04:39:04;;;;;;;5.08;1.45;;;;;;;10.97;90.41;98288.28;1755408;81;21039;-73
2021/05/20 04:41:32;;;;;;;4.67;1.47;;;;;;;10.98;90.62;98282.98;1755231;80;20995;-74
2021/05/20 04:44:02;;;;;;;5.37;1.30;;;;;;;11.02;90.67;98286.05;1752548;81;21064;-73
2021/05/20 04:46:29;;;;;;;4.00;1.72;;;;;;;11.05;90.40;98294.20;1754773;81;20975;-73
2021/05/20 04:48:55;;;;;;;2.80;1.20;;;;;;;11.07;90.41;98291.90;1754265;81;21105;-75
2021/05/20 04:51:24;;;;;;;2.20;1.30;;;;;;;11.12;89.92;98296.34;1756399;81;21108;-75
2021/05/20 04:53:55;;;;;;;3.00;1.30;;;;;;;11.14;89.79;98296.80;1754794;81;21357;-73
2021/05/20 04:56:44;;;;;;;2.37;1.32;;;;;;;11.17;89.54;98308.49;1756260;81;21323;-74
2021/05/20 04:59:11;;;;;;;2.98;1.70;;;;;;;11.18;89.37;98300.44;1754452;81;21170;-76
2021/05/20 05:01:38;;;;;;;2.30;1.32;;;;;;;11.21;89.23;98302.48;1728392;81;21599;-75
2021/05/20 05:04:04;;;;;;;2.70;1.40;;;;;;;11.24;89.12;98301.77;1755369;81;20974;-74
2021/05/20 05:06:32;;;;;;;4.70;1.55;;;;;;;11.30;89.14;98303.69;1755382;81;20994;-75
2021/05/20 05:08:59;;;;;;;3.95;1.80;;;;;;;11.38;88.87;98306.07;1733895;81;21082;-77
2021/05/20 05:11:26;;;;;;;3.92;1.37;;;;;;;11.45;88.90;98303.47;1735702;81;21561;-74
2021/05/20 05:13:53;;;;;;;4.00;1.30;;;;;;;11.54;88.76;98311.58;1752318;81;21106;-77
2021/05/20 05:16:20;;;;;;;4.30;1.35;;;;;;;11.63;88.37;98310.83;1757620;81;21599;-76
2021/05/20 05:18:46;;;;;;;5.55;2.00;;;;;;;11.71;88.28;98309.03;1758061;81;21594;-75
2021/05/20 05:21:13;;;;;;;3.55;1.47;;;;;;;11.79;88.06;98310.80;1757733;81;21146;-75
2021/05/20 05:23:42;;;;;;;7.92;1.50;;;;;;;11.87;87.55;98317.30;1756214;80;21634;-73
2021/05/20 05:26:08;;;;;;;3.27;1.42;;;;;;;11.97;87.42;98326.19;1750981;81;21064;-74
2021/05/20 05:28:39;;;;;;;3.60;1.52;;;;;;;12.08;86.81;98323.68;1754083;81;21035;-76
2021/05/20 05:31:07;;;;;;;2.35;1.50;;;;;;;12.21;87.28;98329.91;1758238;81;21067;-76
2021/05/20 05:33:35;;;;;;;7.67;1.77;;;;;;;12.35;87.14;98334.35;1752635;81;21062;-78
2021/05/20 05:36:08;;;;;;;2.87;1.50;;;;;;;12.43;86.26;98316.56;1757942;81;21049;-74
2021/05/20 05:38:38;;;;;;;3.75;1.72;;;;;;;12.46;85.36;98322.73;1735878;81;21166;-74
2021/05/20 05:41:07;;;;;;;2.00;1.27;;;;;;;12.47;85.53;98320.22;1732797;81;21570;-74
2021/05/20 05:43:39;;;;;;;5.87;2.35;;;;;;;12.52;85.14;98335.90;1755028;81;21777;-73
2021/05/20 05:46:12;;;;;;;3.20;1.77;;;;;;;12.55;85.39;98338.53;1757067;81;21520;-73
2021/05/20 05:48:38;;;;;;;6.25;1.82;;;;;;;12.59;84.42;98332.48;1755720;81;21044;-75
2021/05/20 05:51:10;;;;;;;4.12;1.70;;;;;;;12.61;84.21;98336.27;1756258;81;21514;-76
2021/05/20 05:53:35;;;;;;;4.08;1.67;;;;;;;12.61;84.35;98342.61;1756965;81;21020;-76
2021/05/20 05:56:03;;;;;;;2.42;1.60;;;;;;;12.66;84.10;98338.17;1753520;81;20937;-74
2021/05/20 05:58:31;;;;;;;4.22;1.52;;;;;;;12.73;83.89;98339.47;1757013;81;20904;-72
2021/05/20 06:01:02;;;;;;;5.70;1.47;;;;;;;12.80;83.42;98338.81;1754578;80;20975;-74
2021/05/20 06:03:30;;;;;;;3.90;1.80;;;;;;;12.89;83.41;98341.60;1734854;81;21069;-73
2021/05/20 06:05:56;;;;;;;5.17;1.47;;;;;;;13.01;83.00;98340.64;1754991;81;21056;-75
2021/05/20 06:08:25;;;;;;;5.15;1.67;;;;;;;13.06;81.92;98345.07;1737123;81;21047;-74
2021/05/20 06:10:53;;;;;;;6.20;1.62;;;;;;;13.06;81.92;98340.92;1752625;81;21611;-74
2021/05/20 06:13:19;;;;;;;8.10;1.90;;;;;;;13.09;81.88;98358.16;1760827;81;21555;-74
2021/05/20 06:15:47;;;;;;;6.03;1.87;;;;;;;13.14;81.91;98360.63;1730591;81;21151;-74
2021/05/20 06:18:53;;;;;;;6.22;1.95;;;;;;;13.23;81.49;98359.03;1675994;85;21073;-73
2021/05/20 06:25:03;;;;;;;5.25;1.47;;;;;;;13.38;80.91;98364.23;1755183;80;21133;-73
2021/05/20 06:27:30;;;;;;;18.07;4.10;;;;;;;13.43;79.50;98366.47;1756026;81;21145;-74
2021/05/20 06:29:58;;;;;;;2.55;1.50;;;;;;;13.38;78.97;98372.53;1761068;81;21542;-77
2021/05/20 06:32:28;;;;;;;12.33;1.90;;;;;;;13.29;78.83;98374.72;1755209;81;20951;-75
2021/05/20 06:34:55;;;;;;;8.48;2.05;;;;;;;13.21;78.70;98374.38;1758122;81;21677;-75
2021/05/20 06:37:21;;;;;;;10.82;4.33;;;;;;;13.14;79.40;98370.31;1754083;81;21040;-74
2021/05/20 06:39:48;;;;;;;6.10;1.82;;;;;;;13.19;79.88;98385.80;1756378;81;21063;-73
2021/05/20 06:42:17;;;;;;;6.90;1.77;;;;;;;13.24;78.96;98379.16;1757319;81;21574;-77
2021/05/20 06:44:46;;;;;;;3.45;1.92;;;;;;;13.26;78.96;98388.72;1751439;81;20998;-73
2021/05/20 06:47:14;;;;;;;4.80;2.17;;;;;;;13.30;79.19;98398.47;1758650;81;21056;-73
2021/05/20 06:49:42;;;;;;;6.78;1.77;;;;;;;13.32;78.25;98393.37;1736767;81;21074;-74
2021/05/20 06:52:10;;;;;;;6.47;2.55;;;;;;;13.36;78.08;98391.46;1756692;81;21059;-74
2021/05/20 06:54:42;;;;;;;3.17;1.80;;;;;;;13.45;78.67;98398.15;1754455;81;21622;-75
2021/05/20 06:57:21;;;;;;;5.10;1.47;;;;;;;13.58;78.18;98407.09;1752174;81;21058;-75
2021/05/20 07:00:01;;;;;;;5.17;1.40;;;;;;;13.66;77.66;98412.20;1756214;81;22171;-75
2021/05/20 07:09:21;;;;;;;7.87;1.80;;;;;;;13.96;76.44;98414.28;1644868;86;21128;-73
2021/05/20 07:11:53;;;;;;;2.45;1.57;;;;;;;13.92;75.70;98415.39;1683400;83;21120;-73
2021/05/20 07:14:20;;;;;;;11.33;1.80;;;;;;;13.83;75.20;98417.02;1693098;83;21076;-77
2021/05/20 07:16:56;;;;;;;9.90;3.60;;;;;;;13.74;74.49;98413.91;1723969;82;21087;-73
2021/05/20 07:26:35;;;;;;;5.78;1.80;;;;;;;13.69;74.40;98421.14;1602972;89;21080;-74
2021/05/20 07:29:06;;;;;;;3.37;2.15;;;;;;;13.65;74.62;98419.48;1605630;89;21667;-74
2021/05/20 07:31:32;;;;;;;7.65;3.62;;;;;;;13.61;74.92;98424.34;1696061;82;21070;-76
2021/05/20 07:33:59;;;;;;;8.45;2.47;;;;;;;13.60;74.95;98439.36;1719860;82;21640;-73
2021/05/20 07:36:25;;;;;;;11.73;2.20;;;;;;;13.57;74.41;98436.52;1717170;83;21161;-75
2021/05/20 07:38:51;;;;;;;8.18;1.70;;;;;;;13.54;74.46;98428.39;1710456;83;20971;-76
2021/05/20 07:41:18;;;;;;;9.60;1.90;;;;;;;13.53;74.16;98437.84;1706940;83;21175;-75
2021/05/20 07:43:48;;;;;;;2.80;1.60;;;;;;;13.50;73.70;98438.55;1717724;83;21047;-76
2021/05/20 07:46:14;;;;;;;5.17;3.00;;;;;;;13.46;73.47;98432.94;1711740;83;21586;-73
2021/05/20 07:48:41;;;;;;;8.35;2.05;;;;;;;13.46;73.66;98439.08;1710723;83;21823;-75
2021/05/20 07:51:11;;;;;;;3.52;1.47;;;;;;;13.47;73.35;98441.47;1704880;83;21560;-77
2021/05/20 07:53:38;;;;;;;3.92;1.80;;;;;;;13.47;73.62;98442.86;1708065;83;21614;-76
2021/05/20 07:56:16;;;;;;;7.33;1.98;;;;;;;13.50;73.55;98446.84;1712695;83;21066;-73
2021/05/20 07:58:42;;;;;;;3.67;1.45;;;;;;;13.48;73.84;98448.59;1714068;83;21506;-74
2021/05/20 08:01:12;;;;;;;4.28;1.80;;;;;;;13.50;73.28;98446.84;1700752;83;21874;-75
2021/05/20 08:04:15;;;;;;;6.33;1.60;;;;;;;13.52;73.61;98452.84;1708260;83;21069;-73
2021/05/20 08:06:19;;;;;;;4.72;2.55;;;;;;;13.53;73.63;98450.29;1687548;83;21060;-77
2021/05/20 08:08:54;;;;;;;3.80;2.05;;;;;;;13.56;73.88;98455.09;1688939;84;21091;-76
2021/05/20 08:11:19;;;;;;;4.55;1.98;;;;;;;13.61;74.38;98469.23;1698797;84;21083;-73
2021/05/20 08:13:47;;;;;;;10.75;2.20;;;;;;;13.66;74.40;98479.19;1700696;82;20996;-73
2021/05/20 08:16:15;;;;;;;5.17;1.95;;;;;;;13.69;74.41;98470.16;1702642;83;21091;-74
2021/05/20 08:18:43;;;;;;;4.40;2.62;;;;;;;13.79;75.25;98477.86;1692138;84;20986;-75
2021/05/20 08:21:09;;;;;;;4.90;1.90;;;;;;;13.91;75.59;98476.89;1695099;84;21067;-74
2021/05/20 08:23:38;;;;;;;4.83;2.87;;;;;;;14.00;74.58;98481.58;1697823;84;21083;-72
2021/05/20 08:26:13;;;;;;;11.00;2.47;;;;;;;13.99;74.12;98488.30;1696381;84;21578;-72
2021/05/20 08:28:41;;;;;;;4.75;2.40;;;;;;;13.96;74.23;98491.00;1696805;83;21619;-76
2021/05/20 08:31:08;;;;;;;7.83;2.80;;;;;;;13.89;73.72;98497.21;1692760;84;21646;-74
2021/05/20 08:33:35;;;;;;;5.42;2.40;;;;;;;13.81;73.54;98496.87;1702142;83;21026;-74
2021/05/20 08:36:02;;;;;;;5.05;2.05;;;;;;;13.75;73.26;98499.13;1698735;83;21092;-74
2021/05/20 08:38:28;;;;;;;10.88;2.08;;;;;;;13.69;73.38;98498.64;1697591;84;21428;-77
2021/05/20 08:40:57;;;;;;;9.63;1.80;;;;;;;13.68;73.40;98502.55;1692904;84;21003;-76
2021/05/20 08:43:26;;;;;;;6.28;2.55;;;;;;;13.68;73.35;98499.79;1666462;84;21036;-74
2021/05/20 08:45:56;;;;;;;9.65;2.80;;;;;;;13.69;73.57;98501.98;1692219;84;21067;-78
2021/05/20 08:48:22;;;;;;;13.55;2.90;;;;;;;13.70;73.62;98503.60;1698772;84;21047;-75
2021/05/20 08:50:50;;;;;;;7.22;2.40;;;;;;;13.72;74.03;98511.74;1699814;84;20952;-75
2021/05/20 08:53:20;;;;;;;8.50;3.52;;;;;;;13.80;74.53;98504.36;1692865;83;21184;-74
2021/05/20 08:55:49;;;;;;;7.90;2.45;;;;;;;13.97;74.15;98512.00;1695136;83;21062;-75
2021/05/20 08:58:15;;;;;;;4.00;2.05;;;;;;;14.21;74.81;98515.59;1700842;84;21060;-74
2021/05/20 09:00:50;;;;;;;4.15;2.33;;;;;;;14.47;73.57;98502.35;1684147;84;21039;-80
2021/05/20 09:03:19;;;;;;;7.05;1.92;;;;;;;14.67;72.82;98505.02;1692339;84;21092;-74
2021/05/20 09:05:45;;;;;;;6.28;1.87;;;;;;;14.83;71.14;98506.87;1695272;84;21127;-79
2021/05/20 09:08:21;;;;;;;4.92;1.80;;;;;;;14.89;70.27;98500.42;1689128;84;21111;-74
2021/05/20 09:10:47;;;;;;;;;;;;;;;14.91;70.08;98499.47;1699261;84;21072;-76
2021/05/20 09:13:17;;;;;;;7.40;2.02;;;;;;;14.94;69.98;98507.03;1669130;84;20556;-73
2021/05/20 09:15:46;;;;;;;4.67;1.98;;;;;;;14.93;69.89;98516.52;1691317;84;21609;-73
2021/05/20 09:18:24;;;;;;;10.13;2.60;;;;;;;14.88;69.62;98514.06;1717927;82;21105;-77
2021/05/20 09:20:57;;;;;;;7.87;1.80;;;;;;;14.76;69.73;98517.23;1718802;82;21073;-74
2021/05/20 09:23:25;;;;;;;7.03;2.20;;;;;;;14.68;69.21;98528.81;1716522;82;20987;-74
2021/05/20 09:25:55;;;;;;;7.35;1.60;;;;;;;14.66;69.62;98533.11;1683770;84;21036;-72
2021/05/20 09:28:42;;;;;;;17.15;1.87;;;;;;;14.76;70.01;98538.03;1686621;83;21079;-74
2021/05/20 09:31:11;;;;;;;5.37;2.30;;;;;;;15.00;70.23;98527.72;1685893;84;21117;-76
2021/05/20 09:33:39;;;;;;;5.67;1.82;;;;;;;15.31;68.97;98532.70;1696859;84;21034;-74
2021/05/20 09:36:07;;;;;;;5.83;1.47;;;;;;;15.53;68.34;98530.77;1757433;80;22182;-77
2021/05/20 09:38:36;;;;;;;18.62;2.27;;;;;;;15.71;67.51;98531.00;1753893;81;21011;-76
2021/05/20 09:41:06;;;;;;;8.30;1.45;;;;;;;15.87;64.50;98528.57;1755762;81;21480;-76
2021/05/20 09:43:38;;;;;;;5.92;1.62;;;;;;;15.96;64.08;98535.22;1758193;81;21040;-76
2021/05/20 09:46:18;;;;;;;2.75;1.35;;;;;;;15.98;63.33;98529.50;1755586;81;21035;-74
2021/05/20 09:48:48;;;;;;;7.22;1.02;;;;;;;16.03;63.58;98533.36;1756513;81;21079;-75
2021/05/20 09:51:27;;;;;;;6.22;1.30;;;;;;;16.10;62.70;98524.88;1751519;81;21065;-77
2021/05/20 09:53:55;;;;;;;6.83;1.22;;;;;;;16.06;61.01;98535.37;1753301;81;22145;-75
2021/05/20 09:56:40;;;;;;;1.82;1.30;;;;;;;16.06;61.23;98540.11;1753504;81;21062;-76
2021/05/20 09:59:13;;;;;;;4.97;1.37;;;;;;;16.05;61.76;98540.70;1757005;81;21027;-75
2021/05/20 10:01:36;;;;;;;4.35;1.00;;;;;;;16.02;60.57;98535.13;1754207;81;21037;-77
2021/05/20 10:04:04;;;;;;;5.90;1.20;;;;;;;15.96;61.17;98537.99;1755021;81;21020;-74
2021/05/20 10:19:25;;;;;;;8.20;1.52;;;;;;;16.82;58.30;98550.30;1736375;78;22752;-73
2021/05/20 10:21:53;;;;;;;7.62;1.95;;;;;;;16.63;58.48;98556.31;1778513;79;20925;-73
2021/05/20 10:24:20;;;;;;;5.47;1.27;;;;;;;16.44;59.11;98552.59;1758785;81;21008;-75
2021/05/20 10:26:49;;;;;;;1.90;1.10;;;;;;;16.24;58.66;98563.91;1767153;80;21600;-74
2021/05/20 10:29:16;;;;;;;7.45;2.75;;;;;;;15.98;59.48;98561.45;1758962;80;20934;-75
2021/05/20 10:31:43;;;;;;;4.45;1.10;;;;;;;15.78;59.78;98561.61;1759350;81;20961;-78
2021/05/20 10:34:14;;;;;;;7.00;1.52;;;;;;;15.62;60.02;98552.70;1761143;80;21634;-74
2021/05/20 10:36:38;;;;;;;11.93;2.95;;;;;;;15.54;60.99;98564.31;1755887;81;21073;-77
2021/05/20 10:39:27;;;;;;;4.62;1.67;;;;;;;15.70;62.63;98555.77;1718230;81;21549;-76
2021/05/20 10:52:42;;;;;;;2.47;1.07;;;;;;;16.87;61.30;98554.11;1761957;80;21014;-75
2021/05/20 10:55:15;;;;;;;7.33;1.87;;;;;;;17.07;60.46;98551.86;1756063;80;21054;-76
2021/05/20 11:01:37;;;;;;;12.30;1.40;;;;;;;17.42;57.38;98552.45;1691887;81;21097;-76
2021/05/20 11:04:09;;;;;;;6.72;1.57;;;;;;;17.63;56.63;98556.53;1756437;81;21069;-74
2021/05/20 11:06:42;;;;;;;4.53;1.32;;;;;;;17.67;56.14;98554.57;1720163;81;22209;-75
2021/05/20 11:09:12;;;;;;;11.93;1.90;;;;;;;17.59;55.50;98555.70;1730047;81;21520;-78
2021/05/20 11:11:45;;;;;;;7.97;1.72;;;;;;;17.51;56.63;98566.03;1728081;83;21643;-79
2021/05/20 11:14:17;;;;;;;8.15;1.50;;;;;;;17.49;57.09;98564.22;1727965;83;21024;-74
2021/05/20 11:16:46;;;;;;;8.83;1.30;;;;;;;17.40;56.96;98565.97;1728271;83;21060;-78
2021/05/20 11:19:23;;;;;;;11.50;1.57;;;;;;;17.30;56.94;98566.73;1701177;82;21046;-74
2021/05/20 11:22:11;;;;;;;7.75;2.60;;;;;;;17.30;57.71;98561.94;1719071;81;21601;-77
2021/05/20 11:24:41;;;;;;;3.92;1.65;;;;;;;17.33;57.42;98567.34;1729959;81;21599;-75
2021/05/20 11:27:18;;;;;;;3.80;1.20;;;;;;;17.24;58.16;98568.48;1733353;81;21081;-74
2021/05/20 11:29:49;;;;;;;3.72;1.40;;;;;;;17.23;57.72;98576.61;1728797;82;21037;-77
2021/05/20 11:32:30;;;;;;;3.65;1.47;;;;;;;17.12;57.26;98564.62;1733239;82;21499;-76
2021/05/20 11:37:37;;;;;;;5.83;1.52;;;;;;;16.78;57.29;98578.89;1739453;81;21045;-77
2021/05/20 11:39:57;;;;;;;5.65;2.35;;;;;;;16.62;56.96;98573.58;1718438;82;21033;-75
2021/05/20 11:42:29;;;;;;;8.03;2.10;;;;;;;16.54;56.98;98579.69;1725753;82;21053;-75
2021/05/20 11:44:56;;;;;;;9.80;1.75;;;;;;;16.52;57.50;98572.31;1725852;82;21553;-77
2021/05/20 11:47:22;;;;;;;7.30;1.70;;;;;;;16.55;57.48;98584.05;1727581;81;20990;-75
2021/05/20 11:49:49;;;;;;;4.72;1.15;;;;;;;16.65;56.99;98570.64;1734158;81;21662;-75
2021/05/20 11:52:17;;;;;;;5.00;1.65;;;;;;;16.84;57.38;98573.75;1731617;81;21605;-75
2021/05/20 11:54:49;;;;;;;4.70;1.30;;;;;;;17.00;58.53;98579.05;1727784;81;21065;-76
2021/05/20 11:57:18;;;;;;;9.73;1.30;;;;;;;17.10;56.16;98587.86;1732641;82;21087;-74
2021/05/20 11:59:55;;;;;;;6.22;1.30;;;;;;;17.06;55.61;98586.41;1740412;81;21009;-76
2021/05/20 12:02:30;;;;;;;7.75;2.02;;;;;;;17.00;54.75;98584.61;1693098;82;21033;-74
2021/05/20 12:05:11;;;;;;;8.53;1.55;;;;;;;17.04;54.95;98581.85;1721547;82;21105;-76
2021/05/20 12:07:40;;;;;;;6.45;1.72;;;;;;;17.19;55.19;98586.95;1720508;80;21451;-74
2021/05/20 12:10:16;;;;;;;7.33;4.50;;;;;;;17.40;53.76;98579.88;1723722;82;21113;-77
2021/05/20 12:12:45;;;;;;;4.42;1.32;;;;;;;17.56;53.09;98590.72;1739648;81;21538;-76
2021/05/20 12:15:16;;;;;;;2.95;1.52;;;;;;;17.62;52.85;98591.92;1696048;82;21078;-77
2021/05/20 12:17:47;;;;;;;10.18;1.12;;;;;;;17.43;48.97;98587.48;1727618;82;21576;-76
2021/05/20 12:20:16;;;;;;;6.35;1.10;;;;;;;17.12;50.12;98593.27;1727728;82;21525;-76
2021/05/20 12:22:45;;;;;;;1.57;0.95;;;;;;;16.90;51.26;98586.72;1719854;83;21045;-75
2021/05/20 12:25:26;;;;;;;2.42;1.12;;;;;;;16.71;51.96;98603.85;1736522;81;21099;-75
2021/05/20 13:22:30;;;;;;;8.55;1.40;;;;;;;16.94;52.96;98624.30;1714535;81;21672;-76
2021/05/20 14:02:37;;;;;;;4.75;1.47;;;;;;;16.28;53.87;98654.27;1605727;87;21566;-79
2021/05/20 14:05:00;;;;;;;5.10;0.90;;;;;;;16.43;53.55;98655.21;1663162;81;21061;-74
2021/05/20 14:07:28;;;;;;;6.05;1.60;;;;;;;16.48;52.37;98657.65;1730518;81;21043;-77
2021/05/20 14:09:55;;;;;;;1.85;1.35;;;;;;;16.58;52.14;98656.77;1727336;82;21018;-74
2021/05/20 14:12:24;;;;;;;4.80;1.30;;;;;;;16.67;52.66;98659.44;1727570;82;21085;-73
2021/05/20 14:14:52;;;;;;;2.95;1.22;;;;;;;16.74;52.19;98660.09;1714308;83;21033;-75
2021/05/20 14:17:22;;;;;;;10.88;1.10;;;;;;;16.73;51.91;98658.50;1716731;82;21549;-77
2021/05/20 14:19:52;;;;;;;4.67;1.50;;;;;;;16.74;51.50;98665.66;1722576;82;21058;-75
2021/05/20 14:22:18;;;;;;;1.87;1.37;;;;;;;16.71;51.66;98659.47;1719303;82;21565;-75